sensor_id;sensor_type;location;lat;lon;timestamp;temperature;humidity
22319;DHT22;11327;52.334;9.506;2023-04-03T00:00:53;3.30;99.90
22319;DHT22;11327;52.334;9.506;2023-04-03T00:04:13;3.30;99.90
22319;DHT22;11327;52.334;9.506;2023-04-03T00:07:34;3.20;99.90
22319;DHT22;11327;52.334;9.506;2023-04-03T00:10:55;3.20;99.90
22319;DHT22;11327;52.334;9.506;2023-04-03T00:14:15;3.10;99.90
22319;DHT22;11327;52.334;9.506;2023-04-03T00:17:36;3.00;99.90
22319;DHT22;11327;52.334;9.506;2023-04-03T00:20:57;3.10;99.90
22319;DHT22;11327;52.334;9.506;2023-04-03T00:24:18;3.10;99.90
22319;DHT22;11327;52.334;9.506;2023-04-03T00:27:39;3.10;99.90
22319;DHT22;11327;52.334;9.506;2023-04-03T00:31:00;3.00;99.90
22319;DHT22;11327;52.334;9.506;2023-04-03T00:34:23;3.00;99.90
22319;DHT22;11327;52.334;9.506;2023-04-03T00:37:44;2.90;99.90
22319;DHT22;11327;52.334;9.506;2023-04-03T00:41:05;2.90;99.90
22319;DHT22;11327;52.334;9.506;2023-04-03T00:47:57;2.80;99.90
22319;DHT22;11327;52.334;9.506;2023-04-03T00:51:25;2.70;99.90
22319;DHT22;11327;52.334;9.506;2023-04-03T00:54:49;2.60;99.90
22319;DHT22;11327;52.334;9.506;2023-04-03T00:58:11;2.50;99.90
22319;DHT22;11327;52.334;9.506;2023-04-03T01:01:34;2.50;99.90
22319;DHT22;11327;52.334;9.506;2023-04-03T01:04:55;2.50;99.90
22319;DHT22;11327;52.334;9.506;2023-04-03T01:08:16;2.40;99.90
22319;DHT22;11327;52.334;9.506;2023-04-03T01:11:37;2.40;99.90
22319;DHT22;11327;52.334;9.506;2023-04-03T01:15:00;2.40;99.90
22319;DHT22;11327;52.334;9.506;2023-04-03T01:18:24;2.30;99.90
22319;DHT22;11327;52.334;9.506;2023-04-03T01:22:10;2.30;99.90
22319;DHT22;11327;52.334;9.506;2023-04-03T01:25:32;2.30;99.90
22319;DHT22;11327;52.334;9.506;2023-04-03T01:28:54;2.30;99.90
22319;DHT22;11327;52.334;9.506;2023-04-03T01:32:15;2.20;99.90
22319;DHT22;11327;52.334;9.506;2023-04-03T01:35:37;2.10;99.90
22319;DHT22;11327;52.334;9.506;2023-04-03T01:38:59;2.10;99.90
22319;DHT22;11327;52.334;9.506;2023-04-03T01:42:20;2.00;99.90
22319;DHT22;11327;52.334;9.506;2023-04-03T01:45:41;1.90;99.90
22319;DHT22;11327;52.334;9.506;2023-04-03T01:49:02;1.80;99.90
22319;DHT22;11327;52.334;9.506;2023-04-03T01:52:23;1.80;99.90
22319;DHT22;11327;52.334;9.506;2023-04-03T01:55:43;1.70;99.90
22319;DHT22;11327;52.334;9.506;2023-04-03T01:59:04;1.70;99.90
22319;DHT22;11327;52.334;9.506;2023-04-03T02:02:25;1.60;99.90
22319;DHT22;11327;52.334;9.506;2023-04-03T02:05:46;1.60;99.90
22319;DHT22;11327;52.334;9.506;2023-04-03T02:09:06;1.60;99.90
22319;DHT22;11327;52.334;9.506;2023-04-03T02:12:27;1.60;99.90
22319;DHT22;11327;52.334;9.506;2023-04-03T02:15:48;1.50;99.90
22319;DHT22;11327;52.334;9.506;2023-04-03T02:19:09;1.50;99.90
22319;DHT22;11327;52.334;9.506;2023-04-03T02:22:29;1.40;99.90
22319;DHT22;11327;52.334;9.506;2023-04-03T02:25:50;1.40;99.90
22319;DHT22;11327;52.334;9.506;2023-04-03T02:29:11;1.30;99.90
22319;DHT22;11327;52.334;9.506;2023-04-03T02:32:32;1.30;99.90
22319;DHT22;11327;52.334;9.506;2023-04-03T02:35:54;1.30;99.90
22319;DHT22;11327;52.334;9.506;2023-04-03T02:39:15;1.20;99.90
22319;DHT22;11327;52.334;9.506;2023-04-03T02:42:36;1.10;99.90
22319;DHT22;11327;52.334;9.506;2023-04-03T02:45:57;1.10;99.90
22319;DHT22;11327;52.334;9.506;2023-04-03T02:49:18;1.10;99.90
22319;DHT22;11327;52.334;9.506;2023-04-03T02:52:39;1.10;99.90
22319;DHT22;11327;52.334;9.506;2023-04-03T02:55:59;1.00;99.90
22319;DHT22;11327;52.334;9.506;2023-04-03T02:59:20;1.00;99.90
22319;DHT22;11327;52.334;9.506;2023-04-03T03:02:41;1.00;99.90
22319;DHT22;11327;52.334;9.506;2023-04-03T03:06:07;1.00;99.90
22319;DHT22;11327;52.334;9.506;2023-04-03T03:09:29;1.00;99.90
22319;DHT22;11327;52.334;9.506;2023-04-03T03:12:49;0.90;99.90
22319;DHT22;11327;52.334;9.506;2023-04-03T03:16:11;0.90;99.90
22319;DHT22;11327;52.334;9.506;2023-04-03T03:19:31;1.00;99.90
22319;DHT22;11327;52.334;9.506;2023-04-03T03:22:52;1.00;99.90
22319;DHT22;11327;52.334;9.506;2023-04-03T03:26:13;1.00;99.90
22319;DHT22;11327;52.334;9.506;2023-04-03T03:29:33;1.00;99.90
22319;DHT22;11327;52.334;9.506;2023-04-03T03:32:54;1.00;99.90
22319;DHT22;11327;52.334;9.506;2023-04-03T03:36:15;0.90;99.90
22319;DHT22;11327;52.334;9.506;2023-04-03T03:39:36;0.90;99.90
22319;DHT22;11327;52.334;9.506;2023-04-03T03:42:57;0.90;99.90
22319;DHT22;11327;52.334;9.506;2023-04-03T03:46:17;0.90;99.90
22319;DHT22;11327;52.334;9.506;2023-04-03T03:49:38;0.90;99.90
22319;DHT22;11327;52.334;9.506;2023-04-03T03:52:59;0.90;99.90
22319;DHT22;11327;52.334;9.506;2023-04-03T03:56:19;0.90;99.90
22319;DHT22;11327;52.334;9.506;2023-04-03T03:59:40;0.90;99.90
22319;DHT22;11327;52.334;9.506;2023-04-03T04:03:02;1.00;99.90
22319;DHT22;11327;52.334;9.506;2023-04-03T04:06:23;0.90;99.90
22319;DHT22;11327;52.334;9.506;2023-04-03T04:09:43;1.00;99.90
22319;DHT22;11327;52.334;9.506;2023-04-03T04:13:04;0.90;99.90
22319;DHT22;11327;52.334;9.506;2023-04-03T04:16:25;0.90;99.90
22319;DHT22;11327;52.334;9.506;2023-04-03T04:19:46;0.90;99.90
22319;DHT22;11327;52.334;9.506;2023-04-03T04:23:06;0.90;99.90
22319;DHT22;11327;52.334;9.506;2023-04-03T04:26:27;0.90;99.90
22319;DHT22;11327;52.334;9.506;2023-04-03T04:29:48;0.80;99.90
22319;DHT22;11327;52.334;9.506;2023-04-03T04:33:08;0.70;99.90
22319;DHT22;11327;52.334;9.506;2023-04-03T04:36:30;0.50;99.90
22319;DHT22;11327;52.334;9.506;2023-04-03T04:39:50;0.40;99.90
22319;DHT22;11327;52.334;9.506;2023-04-03T04:43:11;0.40;99.90
22319;DHT22;11327;52.334;9.506;2023-04-03T04:46:34;0.30;99.90
22319;DHT22;11327;52.334;9.506;2023-04-03T04:49:54;0.30;99.90
22319;DHT22;11327;52.334;9.506;2023-04-03T04:53:15;0.20;99.90
22319;DHT22;11327;52.334;9.506;2023-04-03T04:56:45;0.20;99.90
22319;DHT22;11327;52.334;9.506;2023-04-03T05:00:07;0.20;99.90
22319;DHT22;11327;52.334;9.506;2023-04-03T05:03:28;0.10;99.90
22319;DHT22;11327;52.334;9.506;2023-04-03T05:06:48;0.10;99.90
22319;DHT22;11327;52.334;9.506;2023-04-03T05:10:09;0.10;99.90
22319;DHT22;11327;52.334;9.506;2023-04-03T05:13:30;0.00;99.90
22319;DHT22;11327;52.334;9.506;2023-04-03T05:16:51;0.00;99.90
22319;DHT22;11327;52.334;9.506;2023-04-03T05:20:15;0.00;99.90
22319;DHT22;11327;52.334;9.506;2023-04-03T05:23:35;0.00;99.90
22319;DHT22;11327;52.334;9.506;2023-04-03T05:26:56;0.00;99.90
22319;DHT22;11327;52.334;9.506;2023-04-03T05:30:18;0.00;99.90
22319;DHT22;11327;52.334;9.506;2023-04-03T05:33:38;0.00;99.90
22319;DHT22;11327;52.334;9.506;2023-04-03T05:36:59;0.00;99.90
22319;DHT22;11327;52.334;9.506;2023-04-03T05:40:20;0.00;99.90
22319;DHT22;11327;52.334;9.506;2023-04-03T05:43:41;0.00;99.90
22319;DHT22;11327;52.334;9.506;2023-04-03T05:47:02;0.10;99.90
22319;DHT22;11327;52.334;9.506;2023-04-03T05:50:22;0.10;99.90
22319;DHT22;11327;52.334;9.506;2023-04-03T05:53:44;0.20;99.90
22319;DHT22;11327;52.334;9.506;2023-04-03T05:57:05;0.30;99.90
22319;DHT22;11327;52.334;9.506;2023-04-03T06:00:26;0.40;99.90
22319;DHT22;11327;52.334;9.506;2023-04-03T06:03:48;0.40;99.90
22319;DHT22;11327;52.334;9.506;2023-04-03T06:07:13;0.50;99.90
22319;DHT22;11327;52.334;9.506;2023-04-03T06:10:36;0.60;99.90
22319;DHT22;11327;52.334;9.506;2023-04-03T06:13:56;0.70;99.90
22319;DHT22;11327;52.334;9.506;2023-04-03T06:17:18;0.80;99.90
22319;DHT22;11327;52.334;9.506;2023-04-03T06:20:39;0.90;99.90
22319;DHT22;11327;52.334;9.506;2023-04-03T06:24:00;1.00;99.90
22319;DHT22;11327;52.334;9.506;2023-04-03T06:27:20;1.20;99.90
22319;DHT22;11327;52.334;9.506;2023-04-03T06:30:41;1.30;99.90
22319;DHT22;11327;52.334;9.506;2023-04-03T06:34:03;1.40;99.90
22319;DHT22;11327;52.334;9.506;2023-04-03T06:37:24;1.50;99.90
22319;DHT22;11327;52.334;9.506;2023-04-03T06:40:49;1.70;99.90
22319;DHT22;11327;52.334;9.506;2023-04-03T06:44:10;1.80;99.90
22319;DHT22;11327;52.334;9.506;2023-04-03T06:47:35;1.90;99.90
22319;DHT22;11327;52.334;9.506;2023-04-03T06:50:56;2.00;99.90
22319;DHT22;11327;52.334;9.506;2023-04-03T06:54:17;2.20;99.90
22319;DHT22;11327;52.334;9.506;2023-04-03T06:57:38;2.20;99.90
22319;DHT22;11327;52.334;9.506;2023-04-03T07:00:59;2.20;99.90
22319;DHT22;11327;52.334;9.506;2023-04-03T07:04:21;2.30;99.90
22319;DHT22;11327;52.334;9.506;2023-04-03T07:07:42;2.40;99.90
22319;DHT22;11327;52.334;9.506;2023-04-03T07:11:03;2.60;99.90
22319;DHT22;11327;52.334;9.506;2023-04-03T07:14:24;2.90;99.90
22319;DHT22;11327;52.334;9.506;2023-04-03T07:17:45;2.90;99.90
22319;DHT22;11327;52.334;9.506;2023-04-03T07:21:06;3.10;99.90
22319;DHT22;11327;52.334;9.506;2023-04-03T07:24:27;3.00;99.90
22319;DHT22;11327;52.334;9.506;2023-04-03T07:27:48;3.10;99.90
22319;DHT22;11327;52.334;9.506;2023-04-03T07:31:11;3.20;99.90
22319;DHT22;11327;52.334;9.506;2023-04-03T07:34:33;3.20;99.90
22319;DHT22;11327;52.334;9.506;2023-04-03T07:37:54;3.30;99.90
22319;DHT22;11327;52.334;9.506;2023-04-03T07:41:17;3.40;99.90
22319;DHT22;11327;52.334;9.506;2023-04-03T07:44:38;3.50;99.90
22319;DHT22;11327;52.334;9.506;2023-04-03T07:48:00;3.60;99.90
22319;DHT22;11327;52.334;9.506;2023-04-03T07:51:21;3.70;99.90
22319;DHT22;11327;52.334;9.506;2023-04-03T07:54:42;4.00;99.90
22319;DHT22;11327;52.334;9.506;2023-04-03T07:58:02;4.00;99.90
22319;DHT22;11327;52.334;9.506;2023-04-03T08:01:23;4.10;99.90
22319;DHT22;11327;52.334;9.506;2023-04-03T08:04:44;4.20;99.90
22319;DHT22;11327;52.334;9.506;2023-04-03T08:08:05;4.40;99.90
22319;DHT22;11327;52.334;9.506;2023-04-03T08:11:27;4.60;99.90
22319;DHT22;11327;52.334;9.506;2023-04-03T08:14:47;4.60;99.90
22319;DHT22;11327;52.334;9.506;2023-04-03T08:18:08;4.80;99.90
22319;DHT22;11327;52.334;9.506;2023-04-03T08:21:29;5.00;99.90
22319;DHT22;11327;52.334;9.506;2023-04-03T08:24:50;5.20;99.90
22319;DHT22;11327;52.334;9.506;2023-04-03T08:28:11;5.40;99.90
22319;DHT22;11327;52.334;9.506;2023-04-03T08:31:32;5.70;99.90
22319;DHT22;11327;52.334;9.506;2023-04-03T08:34:53;5.90;99.90
22319;DHT22;11327;52.334;9.506;2023-04-03T08:38:13;6.10;99.90
22319;DHT22;11327;52.334;9.506;2023-04-03T08:41:40;6.40;99.90
22319;DHT22;11327;52.334;9.506;2023-04-03T08:45:12;6.50;99.90
22319;DHT22;11327;52.334;9.506;2023-04-03T08:48:35;6.50;99.90
22319;DHT22;11327;52.334;9.506;2023-04-03T08:51:56;6.60;99.90
22319;DHT22;11327;52.334;9.506;2023-04-03T08:58:58;6.70;99.90
22319;DHT22;11327;52.334;9.506;2023-04-03T09:02:34;6.70;99.90
22319;DHT22;11327;52.334;9.506;2023-04-03T09:06:02;6.90;99.90
22319;DHT22;11327;52.334;9.506;2023-04-03T09:09:31;7.00;99.90
22319;DHT22;11327;52.334;9.506;2023-04-03T09:12:59;7.20;99.90
22319;DHT22;11327;52.334;9.506;2023-04-03T09:16:31;7.20;99.90
22319;DHT22;11327;52.334;9.506;2023-04-03T09:19:53;7.40;99.90
22319;DHT22;11327;52.334;9.506;2023-04-03T09:23:26;7.50;99.90
22319;DHT22;11327;52.334;9.506;2023-04-03T09:27:04;7.40;99.90
22319;DHT22;11327;52.334;9.506;2023-04-03T09:30:27;7.50;99.90
22319;DHT22;11327;52.334;9.506;2023-04-03T09:33:54;7.50;99.90
22319;DHT22;11327;52.334;9.506;2023-04-03T09:41:13;7.50;99.90
22319;DHT22;11327;52.334;9.506;2023-04-03T09:44:33;7.40;99.90
22319;DHT22;11327;52.334;9.506;2023-04-03T09:48:13;7.40;99.90
22319;DHT22;11327;52.334;9.506;2023-04-03T09:51:31;7.70;99.90
22319;DHT22;11327;52.334;9.506;2023-04-03T09:54:52;8.20;99.90
22319;DHT22;11327;52.334;9.506;2023-04-03T09:58:25;8.70;99.90
22319;DHT22;11327;52.334;9.506;2023-04-03T10:02:17;8.50;99.90
22319;DHT22;11327;52.334;9.506;2023-04-03T10:05:32;8.50;99.90
22319;DHT22;11327;52.334;9.506;2023-04-03T10:09:15;8.40;99.90
22319;DHT22;11327;52.334;9.506;2023-04-03T10:12:30;8.20;99.90
22319;DHT22;11327;52.334;9.506;2023-04-03T10:15:56;8.30;99.90
22319;DHT22;11327;52.334;9.506;2023-04-03T10:23:05;8.80;99.90
22319;DHT22;11327;52.334;9.506;2023-04-03T10:26:32;8.70;99.90
22319;DHT22;11327;52.334;9.506;2023-04-03T10:29:55;8.60;99.90
22319;DHT22;11327;52.334;9.506;2023-04-03T10:37:24;8.50;99.90
22319;DHT22;11327;52.334;9.506;2023-04-03T10:41:05;8.20;99.90
22319;DHT22;11327;52.334;9.506;2023-04-03T10:48:43;7.90;99.90
22319;DHT22;11327;52.334;9.506;2023-04-03T10:52:37;7.60;99.90
22319;DHT22;11327;52.334;9.506;2023-04-03T10:56:25;7.50;99.90
22319;DHT22;11327;52.334;9.506;2023-04-03T11:03:19;7.00;99.90
22319;DHT22;11327;52.334;9.506;2023-04-03T11:06:51;6.90;99.90
22319;DHT22;11327;52.334;9.506;2023-04-03T11:10:31;7.00;99.90
22319;DHT22;11327;52.334;9.506;2023-04-03T11:17:33;6.80;99.90
22319;DHT22;11327;52.334;9.506;2023-04-03T11:21:11;7.10;99.90
22319;DHT22;11327;52.334;9.506;2023-04-03T11:24:33;7.30;99.90
22319;DHT22;11327;52.334;9.506;2023-04-03T11:28:04;7.40;99.90
22319;DHT22;11327;52.334;9.506;2023-04-03T11:31:46;7.40;99.90
22319;DHT22;11327;52.334;9.506;2023-04-03T11:35:05;7.40;99.90
22319;DHT22;11327;52.334;9.506;2023-04-03T11:38:36;7.80;99.90
22319;DHT22;11327;52.334;9.506;2023-04-03T11:42:25;8.10;99.90
22319;DHT22;11327;52.334;9.506;2023-04-03T11:45:55;8.10;99.90
22319;DHT22;11327;52.334;9.506;2023-04-03T11:53:28;7.90;99.90
22319;DHT22;11327;52.334;9.506;2023-04-03T11:56:40;7.90;99.90
22319;DHT22;11327;52.334;9.506;2023-04-03T12:00:45;7.90;99.90
22319;DHT22;11327;52.334;9.506;2023-04-03T12:07:12;8.00;99.90
22319;DHT22;11327;52.334;9.506;2023-04-03T12:10:34;8.10;99.90
22319;DHT22;11327;52.334;9.506;2023-04-03T12:17:26;7.90;99.90
22319;DHT22;11327;52.334;9.506;2023-04-03T12:20:57;7.90;99.90
22319;DHT22;11327;52.334;9.506;2023-04-03T12:24:24;7.90;99.90
22319;DHT22;11327;52.334;9.506;2023-04-03T12:27:45;8.30;99.90
22319;DHT22;11327;52.334;9.506;2023-04-03T12:31:10;8.60;99.90
22319;DHT22;11327;52.334;9.506;2023-04-03T12:35:24;9.20;99.90
22319;DHT22;11327;52.334;9.506;2023-04-03T12:38:32;9.40;99.90
22319;DHT22;11327;52.334;9.506;2023-04-03T12:42:00;9.30;99.90
22319;DHT22;11327;52.334;9.506;2023-04-03T12:45:21;9.40;99.90
22319;DHT22;11327;52.334;9.506;2023-04-03T12:48:55;9.30;99.90
22319;DHT22;11327;52.334;9.506;2023-04-03T12:55:43;9.50;99.90
22319;DHT22;11327;52.334;9.506;2023-04-03T12:59:26;9.30;99.90
22319;DHT22;11327;52.334;9.506;2023-04-03T13:02:46;9.50;99.90
22319;DHT22;11327;52.334;9.506;2023-04-03T13:06:23;9.80;99.90
22319;DHT22;11327;52.334;9.506;2023-04-03T13:09:54;9.70;99.90
22319;DHT22;11327;52.334;9.506;2023-04-03T13:13:09;9.70;99.90
22319;DHT22;11327;52.334;9.506;2023-04-03T13:16:31;9.70;99.90
22319;DHT22;11327;52.334;9.506;2023-04-03T13:19:53;9.60;99.90
22319;DHT22;11327;52.334;9.506;2023-04-03T13:23:16;9.50;99.90
22319;DHT22;11327;52.334;9.506;2023-04-03T13:26:38;9.40;99.90
22319;DHT22;11327;52.334;9.506;2023-04-03T13:30:01;9.40;99.90
22319;DHT22;11327;52.334;9.506;2023-04-03T13:33:25;9.60;99.90
22319;DHT22;11327;52.334;9.506;2023-04-03T13:40:14;9.80;99.90
22319;DHT22;11327;52.334;9.506;2023-04-03T13:43:36;9.50;99.90
22319;DHT22;11327;52.334;9.506;2023-04-03T13:50:53;9.40;99.90
22319;DHT22;11327;52.334;9.506;2023-04-03T13:54:23;9.40;99.90
22319;DHT22;11327;52.334;9.506;2023-04-03T13:57:57;9.20;99.90
22319;DHT22;11327;52.334;9.506;2023-04-03T14:01:20;9.10;99.90
22319;DHT22;11327;52.334;9.506;2023-04-03T14:04:48;9.30;99.90
22319;DHT22;11327;52.334;9.506;2023-04-03T14:08:08;9.80;99.90
22319;DHT22;11327;52.334;9.506;2023-04-03T14:11:30;10.10;99.90
22319;DHT22;11327;52.334;9.506;2023-04-03T14:14:51;10.40;99.90
22319;DHT22;11327;52.334;9.506;2023-04-03T14:18:14;10.60;99.90
22319;DHT22;11327;52.334;9.506;2023-04-03T14:21:35;10.50;99.90
22319;DHT22;11327;52.334;9.506;2023-04-03T14:24:56;10.40;99.60
22319;DHT22;11327;52.334;9.506;2023-04-03T14:28:20;10.40;99.60
22319;DHT22;11327;52.334;9.506;2023-04-03T14:31:43;10.50;99.90
22319;DHT22;11327;52.334;9.506;2023-04-03T14:35:05;10.40;98.70
22319;DHT22;11327;52.334;9.506;2023-04-03T14:38:29;10.50;98.20
22319;DHT22;11327;52.334;9.506;2023-04-03T14:41:50;10.40;97.70
22319;DHT22;11327;52.334;9.506;2023-04-03T14:45:12;10.40;97.20
22319;DHT22;11327;52.334;9.506;2023-04-03T14:48:33;10.40;97.10
22319;DHT22;11327;52.334;9.506;2023-04-03T14:51:54;10.60;99.00
22319;DHT22;11327;52.334;9.506;2023-04-03T14:55:16;10.60;99.00
22319;DHT22;11327;52.334;9.506;2023-04-03T14:58:38;10.40;98.50
22319;DHT22;11327;52.334;9.506;2023-04-03T15:01:58;10.20;99.10
22319;DHT22;11327;52.334;9.506;2023-04-03T15:05:19;10.10;99.50
22319;DHT22;11327;52.334;9.506;2023-04-03T15:08:41;10.20;99.40
22319;DHT22;11327;52.334;9.506;2023-04-03T15:12:02;10.50;99.40
22319;DHT22;11327;52.334;9.506;2023-04-03T15:15:24;10.70;99.50
22319;DHT22;11327;52.334;9.506;2023-04-03T15:18:47;10.90;98.70
22319;DHT22;11327;52.334;9.506;2023-04-03T15:22:17;10.50;98.20
22319;DHT22;11327;52.334;9.506;2023-04-03T15:25:37;10.40;99.30
22319;DHT22;11327;52.334;9.506;2023-04-03T15:28:59;10.00;99.00
22319;DHT22;11327;52.334;9.506;2023-04-03T15:32:20;9.40;99.00
22319;DHT22;11327;52.334;9.506;2023-04-03T15:35:42;9.30;99.90
22319;DHT22;11327;52.334;9.506;2023-04-03T15:39:03;9.40;99.90
22319;DHT22;11327;52.334;9.506;2023-04-03T15:42:24;9.30;99.90
22319;DHT22;11327;52.334;9.506;2023-04-03T15:45:45;9.30;99.90
22319;DHT22;11327;52.334;9.506;2023-04-03T15:49:06;9.20;99.90
22319;DHT22;11327;52.334;9.506;2023-04-03T15:52:27;9.40;99.90
22319;DHT22;11327;52.334;9.506;2023-04-03T15:55:47;9.60;99.90
22319;DHT22;11327;52.334;9.506;2023-04-03T15:59:08;9.90;99.90
22319;DHT22;11327;52.334;9.506;2023-04-03T16:02:29;9.90;99.70
22319;DHT22;11327;52.334;9.506;2023-04-03T16:05:50;9.90;98.50
22319;DHT22;11327;52.334;9.506;2023-04-03T16:09:11;9.90;98.30
22319;DHT22;11327;52.334;9.506;2023-04-03T16:12:32;9.80;97.30
22319;DHT22;11327;52.334;9.506;2023-04-03T16:15:53;9.70;98.60
22319;DHT22;11327;52.334;9.506;2023-04-03T16:19:15;9.50;98.60
22319;DHT22;11327;52.334;9.506;2023-04-03T16:22:36;9.30;99.90
22319;DHT22;11327;52.334;9.506;2023-04-03T16:25:57;9.10;99.90
22319;DHT22;11327;52.334;9.506;2023-04-03T16:29:18;8.90;99.90
22319;DHT22;11327;52.334;9.506;2023-04-03T16:32:39;8.70;99.90
22319;DHT22;11327;52.334;9.506;2023-04-03T16:36:00;8.60;99.90
22319;DHT22;11327;52.334;9.506;2023-04-03T16:39:22;8.60;99.90
22319;DHT22;11327;52.334;9.506;2023-04-03T16:42:42;8.50;99.90
22319;DHT22;11327;52.334;9.506;2023-04-03T16:46:03;8.50;99.90
22319;DHT22;11327;52.334;9.506;2023-04-03T16:49:24;8.50;99.90
22319;DHT22;11327;52.334;9.506;2023-04-03T16:52:46;8.40;99.90
22319;DHT22;11327;52.334;9.506;2023-04-03T16:56:07;8.30;99.90
22319;DHT22;11327;52.334;9.506;2023-04-03T16:59:27;8.20;99.90
22319;DHT22;11327;52.334;9.506;2023-04-03T17:02:48;8.10;99.90
22319;DHT22;11327;52.334;9.506;2023-04-03T17:06:11;8.00;99.90
22319;DHT22;11327;52.334;9.506;2023-04-03T17:09:36;7.90;99.90
22319;DHT22;11327;52.334;9.506;2023-04-03T17:12:57;7.80;99.90
22319;DHT22;11327;52.334;9.506;2023-04-03T17:16:18;7.80;99.90
22319;DHT22;11327;52.334;9.506;2023-04-03T17:19:39;7.70;99.90
22319;DHT22;11327;52.334;9.506;2023-04-03T17:23:01;7.60;99.90
22319;DHT22;11327;52.334;9.506;2023-04-03T17:26:22;7.60;99.90
22319;DHT22;11327;52.334;9.506;2023-04-03T17:29:42;7.40;99.90
22319;DHT22;11327;52.334;9.506;2023-04-03T17:33:03;7.40;99.90
22319;DHT22;11327;52.334;9.506;2023-04-03T17:36:24;7.20;99.90
22319;DHT22;11327;52.334;9.506;2023-04-03T17:39:44;7.10;99.90
22319;DHT22;11327;52.334;9.506;2023-04-03T17:43:06;7.10;99.90
22319;DHT22;11327;52.334;9.506;2023-04-03T17:46:27;7.10;99.90
22319;DHT22;11327;52.334;9.506;2023-04-03T17:49:49;7.00;99.90
22319;DHT22;11327;52.334;9.506;2023-04-03T17:53:11;7.00;99.90
22319;DHT22;11327;52.334;9.506;2023-04-03T17:56:32;6.90;99.90
22319;DHT22;11327;52.334;9.506;2023-04-03T17:59:53;6.80;99.90
22319;DHT22;11327;52.334;9.506;2023-04-03T18:03:14;6.80;99.90
22319;DHT22;11327;52.334;9.506;2023-04-03T18:06:47;6.70;99.90
22319;DHT22;11327;52.334;9.506;2023-04-03T18:10:08;6.70;99.90
22319;DHT22;11327;52.334;9.506;2023-04-03T18:13:29;6.60;99.90
22319;DHT22;11327;52.334;9.506;2023-04-03T18:16:50;6.60;99.90
22319;DHT22;11327;52.334;9.506;2023-04-03T18:20:12;6.50;99.90
22319;DHT22;11327;52.334;9.506;2023-04-03T18:23:35;6.50;99.90
22319;DHT22;11327;52.334;9.506;2023-04-03T18:27:04;6.50;99.90
22319;DHT22;11327;52.334;9.506;2023-04-03T18:30:24;6.40;99.90
22319;DHT22;11327;52.334;9.506;2023-04-03T18:33:46;6.40;99.90
22319;DHT22;11327;52.334;9.506;2023-04-03T18:37:06;6.30;99.90
22319;DHT22;11327;52.334;9.506;2023-04-03T18:40:27;6.20;99.90
22319;DHT22;11327;52.334;9.506;2023-04-03T18:43:48;6.20;99.90
22319;DHT22;11327;52.334;9.506;2023-04-03T18:47:09;6.10;99.90
22319;DHT22;11327;52.334;9.506;2023-04-03T18:50:30;6.10;99.90
22319;DHT22;11327;52.334;9.506;2023-04-03T18:53:50;6.00;99.90
22319;DHT22;11327;52.334;9.506;2023-04-03T18:57:11;6.00;99.90
22319;DHT22;11327;52.334;9.506;2023-04-03T19:00:32;5.90;99.90
22319;DHT22;11327;52.334;9.506;2023-04-03T19:03:53;5.90;99.90
22319;DHT22;11327;52.334;9.506;2023-04-03T19:07:14;5.80;99.90
22319;DHT22;11327;52.334;9.506;2023-04-03T19:10:35;5.80;99.90
22319;DHT22;11327;52.334;9.506;2023-04-03T19:13:57;5.70;99.90
22319;DHT22;11327;52.334;9.506;2023-04-03T19:17:18;5.70;99.90
22319;DHT22;11327;52.334;9.506;2023-04-03T19:20:39;5.70;99.90
22319;DHT22;11327;52.334;9.506;2023-04-03T19:23:59;5.60;99.90
22319;DHT22;11327;52.334;9.506;2023-04-03T19:27:20;5.60;99.90
22319;DHT22;11327;52.334;9.506;2023-04-03T19:30:41;5.60;99.90
22319;DHT22;11327;52.334;9.506;2023-04-03T19:34:02;5.40;99.90
22319;DHT22;11327;52.334;9.506;2023-04-03T19:37:25;5.40;99.90
22319;DHT22;11327;52.334;9.506;2023-04-03T19:40:46;5.40;99.90
22319;DHT22;11327;52.334;9.506;2023-04-03T19:44:07;5.30;99.90
22319;DHT22;11327;52.334;9.506;2023-04-03T19:47:28;5.20;99.90
22319;DHT22;11327;52.334;9.506;2023-04-03T19:50:48;5.20;99.90
22319;DHT22;11327;52.334;9.506;2023-04-03T19:54:09;5.10;99.90
22319;DHT22;11327;52.334;9.506;2023-04-03T19:57:30;5.00;99.90
22319;DHT22;11327;52.334;9.506;2023-04-03T20:00:51;5.00;99.90
22319;DHT22;11327;52.334;9.506;2023-04-03T20:04:11;4.90;99.90
22319;DHT22;11327;52.334;9.506;2023-04-03T20:07:32;4.80;99.90
22319;DHT22;11327;52.334;9.506;2023-04-03T20:10:54;4.70;99.90
22319;DHT22;11327;52.334;9.506;2023-04-03T20:14:16;4.80;99.90
22319;DHT22;11327;52.334;9.506;2023-04-03T20:17:37;4.60;99.90
22319;DHT22;11327;52.334;9.506;2023-04-03T20:21:00;4.50;99.90
22319;DHT22;11327;52.334;9.506;2023-04-03T20:24:21;4.50;99.90
22319;DHT22;11327;52.334;9.506;2023-04-03T20:27:42;4.50;99.90
22319;DHT22;11327;52.334;9.506;2023-04-03T20:31:03;4.50;99.90
22319;DHT22;11327;52.334;9.506;2023-04-03T20:34:24;4.50;99.90
22319;DHT22;11327;52.334;9.506;2023-04-03T20:37:44;4.40;99.90
22319;DHT22;11327;52.334;9.506;2023-04-03T20:41:06;4.40;99.90
22319;DHT22;11327;52.334;9.506;2023-04-03T20:44:27;4.40;99.90
22319;DHT22;11327;52.334;9.506;2023-04-03T20:47:48;4.40;99.90
22319;DHT22;11327;52.334;9.506;2023-04-03T20:51:13;4.30;99.90
22319;DHT22;11327;52.334;9.506;2023-04-03T20:54:34;4.40;99.90
22319;DHT22;11327;52.334;9.506;2023-04-03T20:57:57;4.30;99.90
22319;DHT22;11327;52.334;9.506;2023-04-03T21:01:21;4.30;99.90
22319;DHT22;11327;52.334;9.506;2023-04-03T21:04:47;4.20;99.90
22319;DHT22;11327;52.334;9.506;2023-04-03T21:19:25;4.10;99.90
22319;DHT22;11327;52.334;9.506;2023-04-03T21:22:46;4.10;99.90
22319;DHT22;11327;52.334;9.506;2023-04-03T21:26:06;4.10;99.90
22319;DHT22;11327;52.334;9.506;2023-04-03T21:29:27;4.00;99.90
22319;DHT22;11327;52.334;9.506;2023-04-03T21:32:48;4.00;99.90
22319;DHT22;11327;52.334;9.506;2023-04-03T21:36:08;4.00;99.90
22319;DHT22;11327;52.334;9.506;2023-04-03T21:39:29;3.90;99.90
22319;DHT22;11327;52.334;9.506;2023-04-03T21:42:54;3.90;99.90
22319;DHT22;11327;52.334;9.506;2023-04-03T21:46:15;3.80;99.90
22319;DHT22;11327;52.334;9.506;2023-04-03T21:49:36;3.80;99.90
22319;DHT22;11327;52.334;9.506;2023-04-03T21:52:57;3.70;99.90
22319;DHT22;11327;52.334;9.506;2023-04-03T21:56:19;3.70;99.90
22319;DHT22;11327;52.334;9.506;2023-04-03T21:59:42;3.60;99.90
22319;DHT22;11327;52.334;9.506;2023-04-03T22:03:03;3.60;99.90
22319;DHT22;11327;52.334;9.506;2023-04-03T22:06:24;3.50;99.90
22319;DHT22;11327;52.334;9.506;2023-04-03T22:09:45;3.50;99.90
22319;DHT22;11327;52.334;9.506;2023-04-03T22:13:06;3.40;99.90
22319;DHT22;11327;52.334;9.506;2023-04-03T22:16:27;3.40;99.90
22319;DHT22;11327;52.334;9.506;2023-04-03T22:19:47;3.40;99.90
22319;DHT22;11327;52.334;9.506;2023-04-03T22:23:08;3.30;99.90
22319;DHT22;11327;52.334;9.506;2023-04-03T22:26:29;3.20;99.90
22319;DHT22;11327;52.334;9.506;2023-04-03T22:29:50;3.10;99.90
22319;DHT22;11327;52.334;9.506;2023-04-03T22:33:10;3.00;99.90
22319;DHT22;11327;52.334;9.506;2023-04-03T22:36:31;2.90;99.90
22319;DHT22;11327;52.334;9.506;2023-04-03T22:39:52;2.80;99.90
22319;DHT22;11327;52.334;9.506;2023-04-03T22:43:13;2.80;99.90